CYPC

Paulatuk (Nora Aliqatchialuk Ruben) Airport

Paulatuk, Northwest Territories, Canada
METAR CYPC 200000Z 19011KT 10SM FEW015 BKN040 OVC070 M09/M12 A2976 RMK SC2SC5AC1 -8.7/-9.3/TR/12 TRACE LOOSE/LAST STFD OBS/NXT201400UTC SLP081
Observed Flight Rules
Jan-20 @ 00:00 UTC (13 hours ago) Visual Flight Rules
Wind Visibility Clouds
190° at 11 knots 10 miles
  • Few at 1,500' AGL
  • Broken at 4,000' AGL
  • Overcast at 7,000' AGL
Temperatures Readings
Current -9°C / 16°F
Dewpoint -12°C / 10°F
Humidity 79%
Altimeter 29.76" Hg
Pressure 1008.1 hPa
Elevation 6
METAR CYPC 200000Z 19011KT 10SM FEW015 BKN040 OVC070 M09/M12 A2976 RMK SC2SC5AC1 -8.7/-9.3/TR/12 TRACE LOOSE/LAST STFD OBS/NXT201400UTC SLP081
Observed Flight Rules
Jan-20 @ 00:00 UTC
(13 hours ago)
VFR
Wind Visibility
190° at 11 knots 10 miles
Clouds
  • Few at 1,500' AGL
  • Broken at 4,000' AGL
  • Overcast at 7,000' AGL
Temperature Dewpoint
-9°C / 16°F -12°C / 10°F
Humidity Altimeter Pressure
79% 29.76" Hg 1008.1 hPa